AirNav   Everest Fuels
 
 241 users online  

1AR5 Cherokee Strip Airport
Gentry, Arkansas, USA

GOING TO GENTRY?


FAA INFORMATION EFFECTIVE 05 DECEMBER 2019

Location

FAA Identifier: 1AR5
Lat/Long: 36-17-58.0000N 094-35-05.0000W
36-17.966667N 094-35.083333W
36.2994444,-94.5847222
(estimated)
Elevation: 1194 ft. / 364 m (estimated)
From city: 5 miles NW of GENTRY, AR
Time zone: UTC -6 (UTC -5 during Daylight Saving Time)
Zip code: 72734

Airport Operations

Airport use: Private use. Permission required prior to landing
Activation date: 03/2006
Control tower: no
ARTCC: MEMPHIS CENTER
FSS: JONESBORO FLIGHT SERVICE STATION
Attendance: UNATNDD
Segmented circle: no

Airport Communications

WX AWOS-3PT at SLG (8 nm SE): 118.375 (479-524-9893)
WX ASOS at XNA (13 nm E): 119.425 (479-203-0109)
WX AWOS-3PT at VBT (18 nm E): 134.975 (479-273-9198)
WX AWOS-3 at GMJ (20 nm N): 119.025 (918-786-8350)

Nearby radio navigation aids

VOR radial/distance  VOR name  Freq  Var
RZCr274/22.6RAZORBACK VORTAC116.4004E
EOSr185/33.4NEOSHO VOR/DME117.3007E

 
NDB name  Hdg/Dist  Freq  Var  ID
SILOAM SPRINGS321/8.128404ESLG ... .-.. --.

Airport Services

Runway Information

Runway 18/36

Dimensions: 2500 x 80 ft. / 762 x 24 m
Surface: turf
RUNWAY 18  RUNWAY 36
Traffic pattern: leftleft
Obstructions: 50 ft. trees, 300 ft. from runwaynone

Airport Ownership and Management from official FAA records

Ownership: Privately-owned
Owner: DONALD AMOS
24928 CHEROKEE RD
GENTRY, AR 72734
Manager: DONALD AMOS
24928 CHEROKEE RD
GENTRY, AR 72734
Phone 479-752-7113

Airport Operational Statistics

Aircraft based on the field: 4
Single engine airplanes: 3
Multi engine airplanes: 1
    

Additional Remarks

FOR CD CTC RAZORBACK APCH 479-649-2416, WHEN APCH CLSD CTC MEMPHIS ARTCC AT 901-368-8453.

Instrument Procedures

There are no published instrument procedures at 1AR5.

Some nearby airports with instrument procedures:

5M5 - Crystal Lake Airport (7 nm E)
KSLG - Smith Field Airport (8 nm SE)
KXNA - Northwest Arkansas Regional Airport (13 nm E)
KVBT - Bentonville Municipal Airport/Louise M Thaden Field (18 nm E)
KGMJ - Grove Municipal Airport (20 nm N)
 
Loc | Ops | Rwys | IFR | FBO | Links
Com | Nav | Svcs | Stats | Notes
Area around 1AR5 (Cherokee Strip Airport)
 
Road maps at: MapQuest Bing Google
 
Aerial photo
WARNING: Photo may not be current or correct
Aerial photo of 1AR5 (Cherokee Strip Airport)
Photo by Donald Amos
Photo taken 20-Sep-2008

Do you have a better or more recent aerial photo of Cherokee Strip Airport that you would like to share? If so, please send us your photo.

 
Sectional chart

 
Airport distance calculator
Flying to Cherokee Strip Airport? Find the distance to fly.

From to 1AR5

Sunrise and sunset
Times for 14-Dec-2019
 Local
(UTC-6)
 Zulu
(UTC)
Morning civil twilight06:5412:54
Sunrise07:2313:23
Sunset17:0323:03
Evening civil twilight17:3223:32

Current date and time
Zulu (UTC)  14-Dec-2019 08:08:57
Local (UTC-6)  14-Dec-2019 02:08:57
 
METAR
KSLG 
8nm SE 
140756Z AUTO 25004KT 10SM FEW060 BKN110 07/04 A2979 RMK AO2 SLP087 T00670044 TSNO
KXNA 
14nm E 
140753Z AUTO 25007KT 10SM FEW065 SCT100 BKN120 06/03 A2978 RMK AO2 SLP081 T00610033
KVBT 
18nm E 
140756Z AUTO 26005KT 10SM FEW055 BKN070 OVC110 06/04 A2980 RMK AO2 RAB16E32 SLP094 P0000 T00610039 TSNO
KGMJ 
19nm N 
140755Z AUTO 28006KT 10SM CLR 07/03 A2981 RMK AO2
TAF
KXNA 
14nm E 
140520Z 1406/1506 22006KT P6SM BKN100 FM141200 33009KT P6SM OVC025 FM141900 VRB05KT P6SM BKN150
NOTAMs
Click for the latest NOTAMs
NOTAMs are issued by the DoD/FAA and will open in a separate window not controlled by AirNav.

 

 
 

Would you like to see your business listed on this page?

 If your business provides an interesting product or service to pilots, flight crews, aircraft, or users of the Cherokee Strip Airport, you should consider listing it here.  To start the listing process, click on the button below
 
Add a business
 

Other Pages about Cherokee Strip Airport

Update a link
 
Copyright © AirNav, LLC. All rights reserved. Privacy Policy  Contact